Time;durP1;ratioP1;P1;durP2;ratioP2;P2;SDS_P1;SDS_P2;PMS_P1;PMS_P2;Temp;Humidity;BMP_temperature;BMP_pressure;BME280_temperature;BME280_humidity;BME280_pressure;Samples;Min_cycle;Max_cycle;Signal;HPM_P1;HPM_P2
2023/05/13 00:00:52;;;;;;;13.33;12.13;;;13.70;99.90;;;;;;5034456;28;20421;-78
2023/05/13 00:03:17;;;;;;;13.87;12.07;;;13.60;99.90;;;;;;5030784;28;20190;-77
2023/05/13 00:05:44;;;;;;;12.83;11.53;;;13.60;99.90;;;;;;5031119;28;20676;-78
2023/05/13 00:08:10;;;;;;;12.40;10.93;;;13.60;99.90;;;;;;5010980;28;20748;-78
2023/05/13 00:10:36;;;;;;;13.33;11.90;;;13.60;99.90;;;;;;5028477;28;20421;-77
2023/05/13 00:13:02;;;;;;;13.93;11.40;;;13.60;99.90;;;;;;5009292;28;20466;-77
2023/05/13 00:15:28;;;;;;;12.90;11.77;;;13.60;99.90;;;;;;5009821;28;20647;-77
2023/05/13 00:17:54;;;;;;;12.40;11.33;;;13.50;99.90;;;;;;5010751;28;20280;-77
2023/05/13 00:20:19;;;;;;;12.70;11.50;;;13.50;99.90;;;;;;5009640;28;20414;-77
2023/05/13 00:22:45;;;;;;;13.93;12.13;;;13.40;99.90;;;;;;5009692;28;20501;-78
2023/05/13 00:25:11;;;;;;;14.50;13.17;;;13.40;99.90;;;;;;4993300;28;20512;-78
2023/05/13 00:27:37;;;;;;;12.70;11.33;;;13.30;99.90;;;;;;5010605;28;20278;-78
2023/05/13 00:30:04;;;;;;;13.97;12.50;;;13.30;99.90;;;;;;5010713;28;20719;-78
2023/05/13 00:32:30;;;;;;;12.83;11.73;;;13.30;99.90;;;;;;5010673;28;20195;-77
2023/05/13 00:34:56;;;;;;;11.93;10.93;;;13.30;99.90;;;;;;5010491;28;20418;-78
2023/05/13 00:37:22;;;;;;;13.87;12.60;;;13.20;99.90;;;;;;5009612;28;20406;-78
2023/05/13 00:39:47;;;;;;;13.60;12.30;;;13.20;99.90;;;;;;5009381;28;20277;-77
2023/05/13 00:42:14;;;;;;;13.40;12.10;;;13.20;99.90;;;;;;5010843;28;20278;-77
2023/05/13 00:44:40;;;;;;;14.70;13.20;;;13.20;99.90;;;;;;5011400;28;20168;-77
2023/05/13 00:47:05;;;;;;;13.70;12.50;;;13.20;99.90;;;;;;5028729;28;20409;-77
2023/05/13 00:49:32;;;;;;;14.23;12.90;;;13.30;99.90;;;;;;5030075;28;20417;-77
2023/05/13 00:51:58;;;;;;;13.13;12.03;;;13.30;99.90;;;;;;5033016;28;20182;-78
2023/05/13 00:54:24;;;;;;;14.53;12.90;;;13.40;99.90;;;;;;5016865;28;20420;-78
2023/05/13 00:56:53;;;;;;;12.90;11.80;;;13.40;99.90;;;;;;5017040;28;20417;-78
2023/05/13 00:59:20;;;;;;;14.60;12.37;;;13.40;99.90;;;;;;5016927;28;20534;-79
2023/05/13 01:02:26;;;;;;;13.53;12.13;;;13.40;99.90;;;;;;5000470;28;20750;-79
2023/05/13 01:05:12;;;;;;;13.60;12.40;;;13.40;99.90;;;;;;4937741;29;20448;-77
2023/05/13 01:08:01;;;;;;;14.17;12.87;;;13.40;99.90;;;;;;5014150;28;20452;-78
2023/05/13 01:10:43;;;;;;;15.90;13.77;;;13.30;99.90;;;;;;5017166;28;20427;-79
2023/05/13 01:13:12;;;;;;;13.57;12.47;;;13.20;99.90;;;;;;5016260;28;20449;-78
2023/05/13 01:15:52;;;;;;;13.17;11.87;;;13.20;99.90;;;;;;5016584;28;20489;-77
2023/05/13 01:18:36;;;;;;;12.97;11.70;;;13.20;99.90;;;;;;5033193;28;20484;-79
2023/05/13 01:21:04;;;;;;;14.37;12.97;;;13.10;99.90;;;;;;5016345;28;20409;-78
2023/05/13 01:23:29;;;;;;;14.53;12.57;;;13.10;99.90;;;;;;5016295;28;20491;-79
2023/05/13 01:25:55;;;;;;;14.23;12.93;;;13.10;99.90;;;;;;5034160;28;20413;-76
2023/05/13 01:28:21;;;;;;;13.60;12.40;;;13.20;99.90;;;;;;4999827;28;20425;-78
2023/05/13 01:30:48;;;;;;;13.13;11.83;;;13.20;99.90;;;;;;5033614;28;20175;-78
2023/05/13 01:33:15;;;;;;;12.80;11.63;;;13.20;99.90;;;;;;5035071;28;20425;-78
2023/05/13 01:35:42;;;;;;;17.40;12.73;;;13.10;99.90;;;;;;5034622;28;20418;-77
2023/05/13 01:38:09;;;;;;;12.80;11.73;;;13.10;99.90;;;;;;5035073;28;20461;-78
2023/05/13 01:40:36;;;;;;;13.60;12.40;;;13.10;99.90;;;;;;5034986;28;20428;-77
2023/05/13 01:43:02;;;;;;;12.83;11.57;;;13.00;99.90;;;;;;5034487;28;20439;-78
2023/05/13 01:45:32;;;;;;;13.33;12.23;;;13.00;99.90;;;;;;5016877;28;20793;-77
2023/05/13 01:47:58;;;;;;;14.23;13.03;;;12.90;99.90;;;;;;5034648;28;20174;-78
2023/05/13 01:50:24;;;;;;;12.57;11.50;;;13.00;99.90;;;;;;5035062;28;20770;-78
2023/05/13 01:52:49;;;;;;;12.10;10.90;;;13.00;99.90;;;;;;5034549;28;20444;-78
2023/05/13 01:55:15;;;;;;;12.57;11.23;;;13.00;99.90;;;;;;5017901;28;20406;-78
2023/05/13 01:57:41;;;;;;;12.10;10.70;;;13.10;99.90;;;;;;5035185;28;20173;-78
2023/05/13 02:00:07;;;;;;;14.40;11.90;;;13.10;99.90;;;;;;5034324;28;20431;-78
2023/05/13 02:02:33;;;;;;;12.93;11.63;;;13.10;99.90;;;;;;5034235;28;20198;-77
2023/05/13 02:04:58;;;;;;;12.63;11.53;;;13.00;99.90;;;;;;5015896;28;20749;-77
2023/05/13 02:07:24;;;;;;;12.60;11.30;;;12.90;99.90;;;;;;5036797;28;20182;-78
2023/05/13 02:09:50;;;;;;;13.60;12.20;;;12.90;99.90;;;;;;5021518;28;20686;-76
2023/05/13 02:12:15;;;;;;;12.17;11.17;;;12.80;99.90;;;;;;5021721;28;20241;-77
2023/05/13 02:14:41;;;;;;;13.57;12.27;;;12.80;99.90;;;;;;5022070;28;20178;-77
2023/05/13 02:17:07;;;;;;;13.37;12.17;;;12.80;99.90;;;;;;5039601;28;20174;-77
2023/05/13 02:19:33;;;;;;;13.70;12.30;;;12.80;99.90;;;;;;5039284;28;20285;-77
2023/05/13 02:21:58;;;;;;;23.23;16.53;;;12.70;99.90;;;;;;5039205;28;20178;-77
2023/05/13 02:24:24;;;;;;;20.70;14.93;;;12.70;99.90;;;;;;5039761;28;20182;-77
2023/05/13 02:26:50;;;;;;;15.33;13.73;;;12.70;99.90;;;;;;5005005;28;20186;-77
2023/05/13 02:29:16;;;;;;;18.20;14.80;;;12.60;99.90;;;;;;5021480;28;20424;-77
2023/05/13 02:31:42;;;;;;;18.90;15.07;;;12.60;99.90;;;;;;5021373;28;20417;-78
2023/05/13 02:34:07;;;;;;;21.10;15.50;;;12.50;99.90;;;;;;5021570;28;20186;-78
2023/05/13 02:36:33;;;;;;;20.10;15.20;;;12.50;99.90;;;;;;5021145;28;20187;-77
2023/05/13 02:38:59;;;;;;;17.77;14.40;;;12.40;99.90;;;;;;5033169;28;20210;-78
2023/05/13 02:41:24;;;;;;;16.80;14.30;;;12.40;99.90;;;;;;5035704;28;20183;-78
2023/05/13 02:43:50;;;;;;;22.07;13.60;;;12.40;99.90;;;;;;5004935;28;20293;-78
2023/05/13 02:46:16;;;;;;;20.63;14.27;;;12.40;99.90;;;;;;5007389;28;20206;-78
2023/05/13 02:48:42;;;;;;;14.70;13.30;;;12.30;99.90;;;;;;5002074;28;20556;-78
2023/05/13 02:51:08;;;;;;;14.97;13.27;;;12.20;99.90;;;;;;5000998;28;20178;-77
2023/05/13 02:53:34;;;;;;;18.73;14.53;;;12.20;99.90;;;;;;5018710;28;20289;-77
2023/05/13 02:55:59;;;;;;;14.43;12.83;;;12.20;99.90;;;;;;5017678;28;20434;-77
2023/05/13 02:58:25;;;;;;;13.87;12.43;;;12.20;99.90;;;;;;5018007;28;20492;-78
2023/05/13 03:00:51;;;;;;;18.30;13.60;;;12.20;99.90;;;;;;5018768;28;20546;-76
2023/05/13 03:03:16;;;;;;;14.70;13.20;;;12.20;99.90;;;;;;5018402;28;20436;-77
2023/05/13 03:05:42;;;;;;;14.50;13.10;;;12.10;99.90;;;;;;5018959;28;20171;-78
2023/05/13 03:08:08;;;;;;;14.83;13.30;;;12.10;99.90;;;;;;5001513;28;20233;-78
2023/05/13 03:10:34;;;;;;;13.77;12.57;;;12.10;99.90;;;;;;5034374;28;20568;-77
2023/05/13 03:12:59;;;;;;;16.30;13.70;;;12.10;99.90;;;;;;5013773;28;20233;-77
2023/05/13 03:15:25;;;;;;;14.47;13.00;;;12.10;99.90;;;;;;5030270;28;20246;-79
2023/05/13 03:17:51;;;;;;;15.37;13.77;;;12.00;99.90;;;;;;5035522;28;20178;-79
2023/05/13 03:20:17;;;;;;;14.80;13.30;;;12.10;99.90;;;;;;5018366;28;20186;-78
2023/05/13 03:22:43;;;;;;;15.17;13.63;;;12.10;99.90;;;;;;5036434;28;20248;-78
2023/05/13 03:25:09;;;;;;;16.50;13.00;;;12.10;99.90;;;;;;5036031;28;20910;-77
2023/05/13 03:27:35;;;;;;;15.60;14.10;;;12.10;99.90;;;;;;5018592;28;20913;-78
2023/05/13 03:30:01;;;;;;;15.00;13.70;;;12.10;99.90;;;;;;4997167;28;20190;-78
2023/05/13 03:32:29;;;;;;;14.50;13.03;;;12.10;99.90;;;;;;5019841;28;20194;-78
2023/05/13 03:34:59;;;;;;;14.47;13.17;;;12.10;99.90;;;;;;5016101;28;20480;-78
2023/05/13 03:37:26;;;;;;;14.77;13.37;;;12.00;99.90;;;;;;5015171;28;20420;-76
2023/05/13 03:39:51;;;;;;;16.67;15.00;;;12.00;99.90;;;;;;5018896;28;20492;-77
2023/05/13 03:42:19;;;;;;;14.47;13.07;;;11.90;99.90;;;;;;5017291;28;20434;-79
2023/05/13 03:44:45;;;;;;;14.87;13.27;;;12.00;99.90;;;;;;5015905;28;20550;-78
2023/05/13 03:47:11;;;;;;;15.80;13.10;;;12.00;99.90;;;;;;5030119;28;20422;-78
2023/05/13 03:49:37;;;;;;;17.10;13.87;;;12.00;99.90;;;;;;5030382;28;20425;-78
2023/05/13 03:52:03;;;;;;;16.30;12.53;;;12.00;99.90;;;;;;5023327;28;20536;-79
2023/05/13 03:54:28;;;;;;;16.00;12.47;;;12.10;99.90;;;;;;5031801;28;20609;-78
2023/05/13 03:56:54;;;;;;;15.87;14.07;;;11.90;99.90;;;;;;4999194;28;20419;-77
2023/05/13 03:59:20;;;;;;;18.27;13.33;;;11.90;99.90;;;;;;5010238;28;20656;-77
2023/05/13 04:01:45;;;;;;;19.80;13.53;;;11.90;99.90;;;;;;5011709;28;20168;-77
2023/05/13 04:04:11;;;;;;;14.50;13.03;;;11.80;99.90;;;;;;5013016;28;20222;-77
2023/05/13 04:06:37;;;;;;;16.70;13.97;;;11.90;99.90;;;;;;4997143;28;20175;-77
2023/05/13 04:09:03;;;;;;;18.20;15.30;;;11.80;99.90;;;;;;5030993;28;20542;-77
2023/05/13 04:11:30;;;;;;;17.80;14.80;;;11.70;99.90;;;;;;5031471;28;20225;-76
2023/05/13 04:13:56;;;;;;;18.23;15.00;;;11.70;99.90;;;;;;5056803;23;20546;-73
2023/05/13 04:16:22;;;;;;;24.30;16.23;;;11.70;99.90;;;;;;5049419;28;20409;-72
2023/05/13 04:18:48;;;;;;;19.80;15.20;;;11.70;99.90;;;;;;5048616;28;20498;-73
2023/05/13 04:21:14;;;;;;;17.70;15.50;;;11.70;99.90;;;;;;5049410;28;20444;-73
2023/05/13 04:23:39;;;;;;;17.90;15.73;;;11.70;99.90;;;;;;5049164;28;20288;-73
2023/05/13 04:26:05;;;;;;;20.23;15.80;;;11.70;99.90;;;;;;5049691;28;20488;-73
2023/05/13 04:28:31;;;;;;;26.47;17.50;;;11.60;99.90;;;;;;5030104;28;20190;-73
2023/05/13 04:30:56;;;;;;;22.03;16.30;;;11.60;99.90;;;;;;5049310;28;20169;-72
2023/05/13 04:33:22;;;;;;;19.30;14.83;;;11.60;99.90;;;;;;5049254;28;20255;-73
2023/05/13 04:35:48;;;;;;;21.83;17.33;;;11.60;99.90;;;;;;5049722;28;20178;-72
2023/05/13 04:38:13;;;;;;;23.07;17.97;;;11.60;99.90;;;;;;5048955;28;20677;-72
2023/05/13 04:40:39;;;;;;;21.00;17.97;;;11.60;99.90;;;;;;5031192;28;20261;-72
2023/05/13 04:43:05;;;;;;;19.57;17.23;;;11.70;99.90;;;;;;5049105;28;20217;-73
2023/05/13 04:45:30;;;;;;;21.93;17.63;;;11.70;99.90;;;;;;5049417;28;20224;-72
2023/05/13 04:47:56;;;;;;;19.07;16.93;;;11.70;99.90;;;;;;5029830;28;20197;-72
2023/05/13 04:50:22;;;;;;;21.57;17.40;;;11.80;99.90;;;;;;5048917;28;20193;-73
2023/05/13 04:52:48;;;;;;;23.23;17.27;;;11.80;99.90;;;;;;5049047;28;20432;-72
2023/05/13 04:55:14;;;;;;;20.77;17.13;;;11.90;99.90;;;;;;5049147;28;20240;-72
2023/05/13 04:57:39;;;;;;;21.63;15.93;;;11.90;99.90;;;;;;5048765;28;20173;-72
2023/05/13 05:00:08;;;;;;;19.40;16.70;;;11.90;99.90;;;;;;5031144;28;20177;-72
2023/05/13 05:02:33;;;;;;;23.20;16.57;;;12.00;99.90;;;;;;5049056;28;20194;-72
2023/05/13 05:04:59;;;;;;;20.53;18.40;;;12.00;99.90;;;;;;5048731;28;20421;-72
2023/05/13 05:07:25;;;;;;;18.47;16.47;;;12.10;99.90;;;;;;5030874;28;20882;-72
2023/05/13 05:09:50;;;;;;;18.43;16.63;;;12.10;99.90;;;;;;5044870;28;20551;-72
2023/05/13 05:12:17;;;;;;;18.77;16.87;;;12.20;99.90;;;;;;5048710;28;20186;-72
2023/05/13 05:14:43;;;;;;;18.47;16.80;;;12.20;99.90;;;;;;5048619;28;20624;-73
2023/05/13 05:17:08;;;;;;;20.20;18.00;;;12.20;99.90;;;;;;5048278;28;20427;-73
2023/05/13 05:19:34;;;;;;;19.67;17.87;;;12.30;99.90;;;;;;5048533;28;20562;-73
2023/05/13 05:22:00;;;;;;;18.73;16.77;;;12.40;99.90;;;;;;5048864;28;20185;-72
2023/05/13 05:24:25;;;;;;;19.53;17.53;;;12.40;99.90;;;;;;5030391;28;20202;-72
2023/05/13 05:26:51;;;;;;;20.00;17.20;;;12.50;99.90;;;;;;5048497;28;20252;-72
2023/05/13 05:29:17;;;;;;;18.23;16.63;;;12.50;99.90;;;;;;5047635;28;20789;-73
2023/05/13 05:31:43;;;;;;;19.27;17.27;;;12.60;99.90;;;;;;5048451;28;20264;-72
2023/05/13 05:34:08;;;;;;;18.30;16.70;;;12.60;99.90;;;;;;5048238;28;20208;-72
2023/05/13 05:36:34;;;;;;;19.13;17.23;;;12.70;99.90;;;;;;5048758;28;20259;-72
2023/05/13 05:39:00;;;;;;;18.90;17.10;;;12.70;99.90;;;;;;5030497;28;20300;-72
2023/05/13 05:41:25;;;;;;;18.77;16.87;;;12.80;99.90;;;;;;5048447;28;20545;-72
2023/05/13 05:43:51;;;;;;;19.17;17.27;;;12.90;99.90;;;;;;5048260;28;20742;-72
2023/05/13 05:46:17;;;;;;;18.63;16.73;;;12.90;99.90;;;;;;5048602;28;20178;-73
2023/05/13 05:48:42;;;;;;;19.87;18.00;;;13.00;99.90;;;;;;5048444;28;20205;-73
2023/05/13 05:51:08;;;;;;;18.23;16.33;;;13.10;99.90;;;;;;5048304;28;20177;-72
2023/05/13 05:53:36;;;;;;;19.43;16.87;;;13.20;99.90;;;;;;5048216;28;20753;-72
2023/05/13 05:56:02;;;;;;;17.60;16.00;;;13.30;99.90;;;;;;5048761;28;20177;-73
2023/05/13 05:58:28;;;;;;;18.80;16.83;;;13.50;99.90;;;;;;5048244;28;20565;-73
2023/05/13 06:00:55;;;;;;;18.63;16.80;;;13.60;99.90;;;;;;5048270;28;20913;-72
2023/05/13 06:03:21;;;;;;;19.10;17.40;;;13.70;99.90;;;;;;5048004;28;20288;-73
2023/05/13 06:05:47;;;;;;;25.70;19.37;;;13.90;99.90;;;;;;5048594;28;20936;-72
2023/05/13 06:08:12;;;;;;;19.30;17.50;;;14.00;99.90;;;;;;5047948;28;20173;-72
2023/05/13 06:10:38;;;;;;;18.27;16.47;;;14.10;99.90;;;;;;5030045;28;20865;-73
2023/05/13 06:13:05;;;;;;;18.37;16.23;;;14.20;99.90;;;;;;5047512;28;20261;-73
2023/05/13 06:15:31;;;;;;;19.80;17.80;;;14.30;99.90;;;;;;5048421;28;20892;-72
2023/05/13 06:17:57;;;;;;;18.00;16.20;;;14.40;99.90;;;;;;5029971;28;20181;-73
2023/05/13 06:20:22;;;;;;;17.00;15.43;;;14.60;99.90;;;;;;5048085;28;20181;-73
2023/05/13 06:22:48;;;;;;;20.57;17.43;;;14.60;99.90;;;;;;5048093;28;20220;-72
2023/05/13 06:25:14;;;;;;;18.57;16.67;;;14.70;99.90;;;;;;5048149;28;20182;-73
2023/05/13 06:27:40;;;;;;;18.87;17.10;;;14.60;99.90;;;;;;5047783;28;20170;-73
2023/05/13 06:30:06;;;;;;;18.50;16.80;;;14.50;99.90;;;;;;5047978;28;20526;-72
2023/05/13 06:32:32;;;;;;;19.03;17.17;;;14.40;99.90;;;;;;5047945;28;20448;-72
2023/05/13 06:34:58;;;;;;;19.57;17.77;;;14.40;99.90;;;;;;5047854;28;20423;-72
2023/05/13 06:37:23;;;;;;;17.17;15.40;;;14.40;99.90;;;;;;5029811;28;20237;-73
2023/05/13 06:39:49;;;;;;;16.93;15.43;;;14.40;99.90;;;;;;5047756;28;20654;-72
2023/05/13 06:42:15;;;;;;;17.00;15.50;;;14.40;99.90;;;;;;5047434;28;20624;-73
2023/05/13 06:44:40;;;;;;;17.00;15.30;;;14.50;99.90;;;;;;5047292;28;20174;-73
2023/05/13 06:47:09;;;;;;;16.70;15.17;;;14.60;99.90;;;;;;5047015;28;20197;-73
2023/05/13 06:49:34;;;;;;;16.30;14.80;;;14.70;99.90;;;;;;5047855;28;20209;-73
2023/05/13 06:52:00;;;;;;;16.73;15.17;;;14.80;99.90;;;;;;5030706;28;20456;-73
2023/05/13 06:54:26;;;;;;;15.70;14.40;;;14.90;99.90;;;;;;5051298;28;20284;-73
2023/05/13 06:56:53;;;;;;;16.20;14.50;;;14.90;99.90;;;;;;5051284;28;20205;-73
2023/05/13 06:59:20;;;;;;;15.17;13.87;;;14.90;99.90;;;;;;5051253;28;21360;-73
2023/05/13 07:01:46;;;;;;;14.63;13.30;;;14.90;99.90;;;;;;5051450;28;20849;-73
2023/05/13 07:04:11;;;;;;;15.60;14.00;;;15.00;99.90;;;;;;5050895;28;20464;-73
2023/05/13 07:06:37;;;;;;;15.13;13.67;;;15.10;99.90;;;;;;5051255;28;20541;-71
2023/05/13 07:09:03;;;;;;;16.53;14.33;;;15.20;99.90;;;;;;5050694;28;20192;-73
2023/05/13 07:11:29;;;;;;;14.13;12.77;;;15.30;99.90;;;;;;5050639;28;20196;-73
2023/05/13 07:13:54;;;;;;;14.67;13.27;;;15.40;99.90;;;;;;5032906;28;20498;-73
2023/05/13 07:16:20;;;;;;;14.30;12.80;;;15.60;99.90;;;;;;5051384;28;20185;-74
2023/05/13 07:18:46;;;;;;;14.60;13.20;;;15.70;99.90;;;;;;5050889;28;20250;-73
2023/05/13 07:21:14;;;;;;;14.07;12.83;;;15.80;99.90;;;;;;5032976;28;20178;-72
2023/05/13 07:23:39;;;;;;;13.87;12.57;;;15.90;99.90;;;;;;5050946;28;20228;-73
2023/05/13 07:26:05;;;;;;;14.70;13.33;;;16.00;99.90;;;;;;5049386;28;20519;-73
2023/05/13 07:28:31;;;;;;;13.83;12.57;;;16.10;99.90;;;;;;5046769;28;20252;-73
2023/05/13 07:30:57;;;;;;;19.10;14.67;;;16.10;99.90;;;;;;5050708;28;20182;-73
2023/05/13 07:33:23;;;;;;;14.50;13.00;;;16.20;99.90;;;;;;5032737;28;20658;-74
2023/05/13 07:35:48;;;;;;;12.00;11.00;;;16.30;99.90;;;;;;5045974;28;20478;-73
2023/05/13 07:38:14;;;;;;;14.03;12.73;;;16.30;99.90;;;;;;5029288;28;20688;-73
2023/05/13 07:40:40;;;;;;;12.60;11.50;;;16.40;99.90;;;;;;5047083;28;20190;-72
2023/05/13 07:43:06;;;;;;;13.50;12.40;;;16.40;99.90;;;;;;5047662;28;20678;-72
2023/05/13 07:45:32;;;;;;;12.50;11.30;;;16.40;99.90;;;;;;5048172;28;20216;-72
2023/05/13 07:47:57;;;;;;;11.13;10.13;;;16.50;99.90;;;;;;5046532;28;20232;-71
2023/05/13 07:50:23;;;;;;;10.80;9.70;;;16.50;99.90;;;;;;5033338;28;20507;-72
2023/05/13 07:52:50;;;;;;;10.33;9.33;;;16.50;99.90;;;;;;5048808;28;20209;-72
2023/05/13 07:55:16;;;;;;;10.17;9.30;;;16.50;99.90;;;;;;5050092;28;20549;-72
2023/05/13 07:57:42;;;;;;;10.17;9.17;;;16.50;99.90;;;;;;5050508;28;20495;-72
2023/05/13 08:00:08;;;;;;;10.80;9.90;;;16.50;99.90;;;;;;5048422;28;21129;-72
2023/05/13 08:02:37;;;;;;;11.50;10.40;;;16.60;99.90;;;;;;5049955;28;20232;-72
2023/05/13 08:05:03;;;;;;;11.20;10.20;;;16.60;99.90;;;;;;5029060;28;20432;-72
2023/05/13 08:07:29;;;;;;;11.43;10.40;;;16.60;99.90;;;;;;5049507;28;20413;-71
2023/05/13 08:09:55;;;;;;;10.97;9.87;;;16.60;99.90;;;;;;5048698;28;20968;-72
2023/05/13 08:12:20;;;;;;;11.10;10.20;;;16.60;99.90;;;;;;5049858;28;20189;-72
2023/05/13 08:14:46;;;;;;;11.40;10.47;;;16.70;99.90;;;;;;5049675;28;20529;-72
2023/05/13 08:17:12;;;;;;;11.13;10.20;;;16.70;99.90;;;;;;5015316;28;20220;-72
2023/05/13 08:19:39;;;;;;;13.07;11.77;;;16.70;99.90;;;;;;5049455;28;20213;-71
2023/05/13 08:22:05;;;;;;;13.53;10.67;;;16.70;99.90;;;;;;5032021;28;20272;-71
2023/05/13 08:24:30;;;;;;;11.07;10.00;;;16.70;99.90;;;;;;5031371;28;21045;-72
2023/05/13 08:26:56;;;;;;;11.90;10.73;;;16.70;99.90;;;;;;5047832;28;20194;-72
2023/05/13 08:29:22;;;;;;;11.77;10.67;;;16.70;99.90;;;;;;5049164;28;20186;-72
2023/05/13 08:31:47;;;;;;;11.87;10.77;;;16.80;99.90;;;;;;5049535;28;20269;-72
2023/05/13 08:34:13;;;;;;;11.43;10.43;;;16.80;99.90;;;;;;5030335;28;20547;-72
2023/05/13 08:36:39;;;;;;;11.57;10.57;;;16.90;99.90;;;;;;5047550;28;20182;-72
2023/05/13 08:39:06;;;;;;;11.67;10.43;;;16.90;99.90;;;;;;5047096;28;20567;-72
2023/05/13 08:41:32;;;;;;;11.33;10.43;;;16.90;99.90;;;;;;5048094;28;20650;-72
2023/05/13 08:43:59;;;;;;;11.10;10.00;;;17.00;99.90;;;;;;5044699;28;20509;-72
2023/05/13 08:46:27;;;;;;;11.63;9.90;;;17.00;99.90;;;;;;5030272;28;20420;-71
2023/05/13 08:48:54;;;;;;;11.03;9.77;;;17.10;99.90;;;;;;5045088;28;20420;-72
2023/05/13 08:51:20;;;;;;;11.93;10.87;;;17.10;99.90;;;;;;5043942;28;20861;-73
2023/05/13 08:53:47;;;;;;;12.33;11.23;;;17.20;99.90;;;;;;5047930;28;20526;-73
2023/05/13 08:56:13;;;;;;;12.97;11.70;;;17.30;99.90;;;;;;5030353;28;20247;-72
2023/05/13 08:58:40;;;;;;;24.97;13.43;;;17.40;99.90;;;;;;5048961;28;20451;-73
2023/05/13 09:01:08;;;;;;;11.00;10.03;;;17.40;99.90;;;;;;5049059;28;20174;-73
2023/05/13 09:03:35;;;;;;;12.57;11.47;;;17.60;99.90;;;;;;5049041;28;20840;-73
2023/05/13 09:06:01;;;;;;;13.47;10.70;;;17.60;99.90;;;;;;5049499;28;20447;-74
2023/05/13 09:08:27;;;;;;;11.90;10.90;;;17.70;99.90;;;;;;5048931;28;20420;-73
2023/05/13 09:10:53;;;;;;;13.77;11.50;;;17.80;99.90;;;;;;5048834;28;20431;-73
2023/05/13 09:13:18;;;;;;;13.00;11.80;;;17.90;99.90;;;;;;5030731;28;20221;-73
2023/05/13 09:15:44;;;;;;;14.50;13.20;;;18.00;99.90;;;;;;5031091;28;20219;-73
2023/05/13 09:18:11;;;;;;;13.77;12.37;;;18.10;99.90;;;;;;5048852;28;20262;-72
2023/05/13 09:20:37;;;;;;;13.43;12.03;;;18.20;99.90;;;;;;5048972;28;20227;-73
2023/05/13 09:23:06;;;;;;;13.20;12.00;;;18.30;99.90;;;;;;5047695;28;20460;-72
2023/05/13 09:25:33;;;;;;;12.77;11.67;;;18.40;99.90;;;;;;5048871;28;20202;-72
2023/05/13 09:28:04;;;;;;;12.13;11.00;;;18.60;99.90;;;;;;5031092;28;20950;-73
2023/05/13 09:30:33;;;;;;;17.40;11.90;;;18.70;99.90;;;;;;5048639;28;20428;-73
2023/05/13 09:33:13;;;;;;;10.83;9.80;;;18.90;99.90;;;;;;5048611;28;20428;-73
2023/05/13 09:35:52;;;;;;;9.43;8.63;;;19.00;99.90;;;;;;5030988;28;20408;-73
2023/05/13 09:38:20;;;;;;;9.97;9.00;;;19.10;99.90;;;;;;5048458;28;20982;-73
2023/05/13 09:40:53;;;;;;;9.33;7.53;;;19.20;99.90;;;;;;5048639;28;20413;-73
2023/05/13 09:43:21;;;;;;;9.10;8.00;;;19.30;99.90;;;;;;5030611;28;20436;-72
2023/05/13 09:45:47;;;;;;;10.60;8.30;;;19.40;99.90;;;;;;5048527;28;20423;-73
2023/05/13 09:48:13;;;;;;;8.17;7.40;;;19.50;99.90;;;;;;5047266;28;20420;-71
2023/05/13 09:50:49;;;;;;;8.50;7.80;;;19.50;99.90;;;;;;5048452;28;20178;-73
2023/05/13 09:53:15;;;;;;;7.27;6.50;;;19.60;99.90;;;;;;5048295;28;20447;-72
2023/05/13 09:55:50;;;;;;;12.17;7.10;;;19.70;99.90;;;;;;5029816;28;20786;-72
2023/05/13 09:58:17;;;;;;;7.23;6.60;;;19.80;99.90;;;;;;5048038;28;20456;-73
2023/05/13 10:00:43;;;;;;;7.67;6.80;;;19.90;99.90;;;;;;5048366;28;20415;-73
2023/05/13 10:03:10;;;;;;;8.03;7.30;;;19.90;99.90;;;;;;5048332;28;20436;-73
2023/05/13 10:05:38;;;;;;;7.80;6.40;;;20.00;99.90;;;;;;5048768;28;20174;-73
2023/05/13 10:08:04;;;;;;;7.33;6.63;;;20.10;99.80;;;;;;5048219;28;20408;-73
2023/05/13 10:10:32;;;;;;;7.73;6.77;;;20.20;99.90;;;;;;5048219;28;20917;-73
2023/05/13 10:13:12;;;;;;;9.47;6.53;;;20.30;99.90;;;;;;5048630;28;20450;-73
2023/05/13 10:15:49;;;;;;;6.97;6.40;;;20.40;99.40;;;;;;5047796;28;20481;-73
2023/05/13 10:18:16;;;;;;;6.90;6.30;;;20.40;97.80;;;;;;5047681;28;20463;-73
2023/05/13 10:20:42;;;;;;;7.23;6.50;;;20.40;98.00;;;;;;5048236;28;20423;-73
2023/05/13 10:23:08;;;;;;;7.00;6.40;;;20.50;99.60;;;;;;5030016;28;20445;-71
2023/05/13 10:25:35;;;;;;;8.70;7.47;;;20.60;99.20;;;;;;5014131;28;20952;-73
2023/05/13 10:28:03;;;;;;;8.43;6.90;;;20.60;99.40;;;;;;5049491;28;20428;-71
2023/05/13 10:30:31;;;;;;;8.90;7.10;;;20.70;99.80;;;;;;5051784;28;21051;-72
2023/05/13 10:32:57;;;;;;;7.30;6.70;;;20.70;99.40;;;;;;5051906;28;20446;-72
2023/05/13 10:35:25;;;;;;;7.00;6.50;;;20.80;99.10;;;;;;5052060;28;20462;-73
2023/05/13 10:38:29;;;;;;;9.43;7.10;;;20.90;99.90;;;;;;5049845;28;20461;-73
2023/05/13 10:40:58;;;;;;;7.53;6.83;;;20.90;99.60;;;;;;5047934;28;20570;-73
2023/05/13 10:43:29;;;;;;;8.43;7.50;;;21.00;99.90;;;;;;5047660;28;20487;-73
2023/05/13 10:46:19;;;;;;;8.13;7.43;;;21.00;99.90;;;;;;5051997;28;20451;-73
2023/05/13 10:48:45;;;;;;;8.27;7.47;;;21.10;99.70;;;;;;5046836;28;20440;-73
2023/05/13 10:51:15;;;;;;;8.17;7.03;;;21.10;98.40;;;;;;5033312;28;20470;-72
2023/05/13 10:53:47;;;;;;;6.20;5.70;;;21.10;98.90;;;;;;5050046;28;20197;-73
2023/05/13 10:56:13;;;;;;;7.17;6.17;;;21.20;97.50;;;;;;5050183;28;20412;-73
2023/05/13 10:58:39;;;;;;;8.80;6.47;;;21.30;97.60;;;;;;5050665;28;20963;-73
2023/05/13 11:01:13;;;;;;;8.13;6.50;;;21.30;98.10;;;;;;5049767;28;20420;-73
2023/05/13 11:03:40;;;;;;;6.70;6.20;;;21.30;97.20;;;;;;5050522;28;20432;-73
2023/05/13 11:06:18;;;;;;;6.53;5.83;;;21.40;98.70;;;;;;5050879;28;20408;-73
2023/05/13 11:08:49;;;;;;;9.27;6.37;;;21.40;97.50;;;;;;5051269;28;20820;-73
2023/05/13 11:11:21;;;;;;;7.03;6.40;;;21.40;97.80;;;;;;5033186;28;20862;-72
2023/05/13 11:13:55;;;;;;;7.30;6.50;;;21.40;97.10;;;;;;5050793;28;20581;-73
2023/05/13 11:16:22;;;;;;;6.63;5.90;;;21.50;97.80;;;;;;5050917;28;20440;-73
2023/05/13 11:18:50;;;;;;;6.27;5.67;;;21.50;97.00;;;;;;5050779;28;20488;-72
2023/05/13 11:21:15;;;;;;;6.60;6.00;;;21.60;98.20;;;;;;5050790;28;20466;-73
2023/05/13 11:23:52;;;;;;;6.47;5.70;;;21.60;97.00;;;;;;5050597;28;20740;-73
2023/05/13 11:26:20;;;;;;;6.90;6.30;;;21.60;96.90;;;;;;5050942;28;20173;-72
2023/05/13 11:28:55;;;;;;;7.03;6.43;;;21.70;97.30;;;;;;5032806;28;20424;-73
2023/05/13 11:31:22;;;;;;;5.67;5.27;;;21.80;96.70;;;;;;5032701;28;20426;-72
2023/05/13 11:34:08;;;;;;;7.20;6.07;;;21.80;95.30;;;;;;5050369;28;20807;-73
2023/05/13 11:36:39;;;;;;;7.33;5.77;;;21.80;96.50;;;;;;5050661;28;20648;-73
2023/05/13 11:39:16;;;;;;;6.80;6.07;;;21.90;96.50;;;;;;5050267;28;20476;-72
2023/05/13 11:41:53;;;;;;;5.83;5.33;;;21.90;95.80;;;;;;5050269;28;20423;-72
2023/05/13 11:44:24;;;;;;;5.90;5.33;;;21.90;93.30;;;;;;5050391;28;20427;-72
2023/05/13 11:46:55;;;;;;;6.87;5.13;;;21.90;93.90;;;;;;5050118;28;20408;-73
2023/05/13 11:49:34;;;;;;;6.13;5.63;;;22.00;95.40;;;;;;5032540;28;20420;-73
2023/05/13 11:52:08;;;;;;;6.97;6.00;;;22.00;94.40;;;;;;5050439;28;20412;-72
2023/05/13 11:54:52;;;;;;;7.87;6.13;;;22.10;94.80;;;;;;5050137;28;20443;-72
2023/05/13 11:57:26;;;;;;;5.87;5.30;;;22.10;93.70;;;;;;5050026;28;20412;-72
2023/05/13 11:59:55;;;;;;;10.40;6.37;;;22.00;93.80;;;;;;5031308;28;20487;-73
2023/05/13 12:02:29;;;;;;;6.23;5.57;;;22.10;95.30;;;;;;5049997;28;20427;-72
2023/05/13 12:04:59;;;;;;;6.97;6.30;;;22.20;96.20;;;;;;5032153;28;20465;-72
2023/05/13 12:07:25;;;;;;;5.73;5.33;;;22.30;95.10;;;;;;5049939;28;20409;-72
2023/05/13 12:09:55;;;;;;;6.20;5.70;;;22.30;94.00;;;;;;5049835;28;20952;-72
2023/05/13 12:12:21;;;;;;;7.67;5.37;;;22.40;94.10;;;;;;5049642;28;20519;-73
2023/05/13 12:14:50;;;;;;;5.83;5.33;;;22.40;94.70;;;;;;5049694;28;20423;-73
2023/05/13 12:17:20;;;;;;;6.23;5.40;;;22.50;94.40;;;;;;5049791;28;20416;-73
2023/05/13 12:20:07;;;;;;;7.50;6.00;;;22.50;94.20;;;;;;5049511;28;20463;-72
2023/05/13 12:22:34;;;;;;;8.73;6.80;;;22.60;94.40;;;;;;5049650;28;20851;-73
2023/05/13 12:25:01;;;;;;;8.50;5.90;;;22.60;94.10;;;;;;5015226;28;20412;-72
2023/05/13 12:27:27;;;;;;;5.70;5.20;;;22.60;93.40;;;;;;5049693;28;20842;-73
2023/05/13 12:29:56;;;;;;;7.40;6.10;;;22.70;90.80;;;;;;5049489;28;20491;-73
2023/05/13 12:32:24;;;;;;;5.83;5.27;;;22.70;91.50;;;;;;5046632;28;20259;-73